Knoxville, TN

1:16 PM EDT on May 25, 2017 (GMT -0400)
South Haven | | Change Station

Elev 893 ft 35.95 °N, 83.88 °W | Updated 26 seconds ago

Overcast
Overcast
62.4 °F
Feels Like 62.4 °F
N
2.5
Wind Variable Wind from WSW
Gusts 4.9 mph

Today
High -- | Low -- °F
--% Chance of Precip.
Yesterday
High -- | Low -- °F
Precip. -- in
Pressure 29.68 in
Visibility 10.0 miles
Clouds Scattered Clouds 3000 ft
Mostly Cloudy 3700 ft
Overcast 7500 ft
Dew Point 52 °F
Humidity 69%
Rainfall 0.00 in
Snow Depth Not available.
6:23 AM 8:42 PM
Waning Crescent, 0% visible
METAR KTYS 251653Z 23017G24KT 10SM SCT030 BKN037 OVC075 17/12 A2969 RMK AO2 SLP049 T01670117
Pressure 29.68 in
Visibility 10.0 miles
Clouds Scattered Clouds 3000 ft
Mostly Cloudy 3700 ft
Overcast 7500 ft
Dew Point 52 °F
Humidity 69%
Rainfall 0.00 in
Snow Depth Not available.
6:23 AM 8:42 PM
Waning Crescent, 0% visible
METAR KTYS 251653Z 23017G24KT 10SM SCT030 BKN037 OVC075 17/12 A2969 RMK AO2 SLP049 T01670117

Get Severe Weather Alerts

Thanks for signing up!

Be on the lookout for a verification email in your inbox.

You'll start receiving the daily forecast at 6 AM.

×

10-Day Weather Forecast

Almanac

Astronomy

May. 25, 2017 Rise Set
Actual Time
Civil Twilight
Nautical Twilight
Astronomical Twilight
Moon
Length of Visible Light
Length of Day
Tomorrow will be .
, % of the Moon is Illuminated

Today's Extremes

State Highs State Lows

Community

WunderPhotos

Category 6

Welcome to Category 6. This is the collective home for Weather Underground's featured writeups by Dr. Jeff Masters (right), Bob Henson (left), Chris Burt, and other regular contributors.

Nearby

Air Quality

  Air Quality AQ Index Pollutant
Not available.

Snow Depth

Station Depth Elevation

Earthquake Activity

City Distance Mag. Time & Date
Minimum magnitude displayed is 2.5.

Coastal Water Temperatures

Place Temperature

Stations

Nearby Weather Stations

Station Location Temp. Windchill Dew Point Humidity Wind Precip. Elev Updated Type
                   

Watches & Warnings

There are currently no watches in effect.